Yang Mei Hu — BQCG — position and weather

sailwx.info

Track history (hours):
 
Tides and Currents Weather Stations Pressure Air Temp Water Temp Dewpoint Dewpoint Depression Visibility Wind Speed Wind Dir Waves Ship Positions

Yang Mei Hu

Last reported at 2018-Apr-22 17:35 UTC. Time now 2018-Apr-27 06:39 UTC.
Position N 23°22' E 119°54'.

Length 245 m; draft 9 m.

Type: Tanker. MMSI: 413858000.

Date/timePositionNaut miles runAvg speedWind from/ knotsBaromVisibWave heightAir tempDewpointWater temp
2018-Apr-22 17:35N 23°22' E 119°54'110.2
2018-Apr-22 17:28N 23°23' E 119°54'510.0
2018-Apr-22 17:01N 23°28' E 119°54'5 9.9
2018-Apr-22 16:30N 23°33' E 119°54'5 9.9
2018-Apr-22 16:00N 23°37' E 119°55'510.6
2018-Apr-22 15:30N 23°42' E 119°57'611.3
2018-Apr-22 15:00N 23°48' E 119°58'611.8
2018-Apr-22 14:30N 23°53' E 120°01'612.3
2018-Apr-22 14:00N 23°59' E 120°04'612.3
2018-Apr-22 13:30N 24°05' E 120°06'612.5
2018-Apr-22 13:00N 24°11' E 120°08'612.7
2018-Apr-22 12:30N 24°17' E 120°11'713.0
2018-Apr-22 12:00N 24°23' E 120°13'1112.4
2018-Apr-22 11:08N 24°33' E 120°17'  
2018-Apr-19 08:44N 30°01' E 123°24'512.9
2018-Apr-19 08:19N 30°05' E 123°27'512.7
2018-Apr-19 07:58N 30°08' E 123°31'3511.7
2018-Apr-19 05:00N 30°38' E 123°52'811.7
2018-Apr-19 04:20N 30°45' E 123°55'412.4
2018-Apr-19 04:00N 30°49' E 123°55'712.1
2018-Apr-19 03:25N 30°56' E 123°53'611.2
2018-Apr-19 02:53N 31°02' E 123°55'512.0
2018-Apr-19 02:28N 31°07' E 123°55'611.5
2018-Apr-19 01:56N 31°13' E 123°54'511.9
2018-Apr-19 01:30N 31°18' E 123°53'712.9
2018-Apr-19 01:00N 31°25' E 123°55'1017.6
2018-Apr-19 00:28N 31°34' E 123°55'810.8
2018-Apr-18 23:42N 31°42' E 123°55'314.2
2018-Apr-18 23:30N 31°45' E 123°55'916.3
2018-Apr-18 22:59N 31°54' E 123°55'612.2
2018-Apr-18 22:29N 31°60' E 123°55'1213.8
2018-Apr-18 21:37N 32°12' E 123°55'613.4
2018-Apr-18 21:11N 32°17' E 123°55'9012.0
2018-Apr-18 13:40N 33°47' E 123°55'26712.9
2018-Apr-17 17:02N 38°07' E 122°40'514.8
2018-Apr-17 16:43N 38°10' E 122°36'314.6
2018-Apr-17 16:30N 38°13' E 122°33'714.5
2018-Apr-17 16:00N 38°18' E 122°27'714.0
2018-Apr-17 15:30N 38°22' E 122°20'714.0
2018-Apr-17 15:01N 38°28' E 122°15'713.8
2018-Apr-17 14:31N 38°33' E 122°08'713.7
2018-Apr-17 14:01N 38°38' E 122°03'713.3
2018-Apr-17 13:28N 38°44' E 121°58'511.8
2018-Apr-17 13:01N 38°49' E 121°57'  
Track history (hours):
 
Tides and Currents Weather Stations Pressure Air Temp Water Temp Dewpoint Dewpoint Depression Visibility Wind Speed Wind Dir Waves Ship Positions

Yang Mei Hu

Last reported at 2018-Apr-22 17:35 UTC. Time now 2018-Apr-27 06:39 UTC.
Position N 23°22' E 119°54'.

Length 245 m; draft 9 m.

Type: Tanker. MMSI: 413858000.

Date/timePositionNaut miles runAvg speedWind from/ knotsBaromVisibWave heightAir tempDewpointWater temp
2018-Apr-22 17:35N 23°22' E 119°54'110.2
2018-Apr-22 17:28N 23°23' E 119°54'510.0
2018-Apr-22 17:01N 23°28' E 119°54'5 9.9
2018-Apr-22 16:30N 23°33' E 119°54'5 9.9
2018-Apr-22 16:00N 23°37' E 119°55'510.6
2018-Apr-22 15:30N 23°42' E 119°57'611.3
2018-Apr-22 15:00N 23°48' E 119°58'611.8
2018-Apr-22 14:30N 23°53' E 120°01'612.3
2018-Apr-22 14:00N 23°59' E 120°04'612.3
2018-Apr-22 13:30N 24°05' E 120°06'612.5
2018-Apr-22 13:00N 24°11' E 120°08'612.7
2018-Apr-22 12:30N 24°17' E 120°11'713.0
2018-Apr-22 12:00N 24°23' E 120°13'1112.4
2018-Apr-22 11:08N 24°33' E 120°17'  
2018-Apr-19 08:44N 30°01' E 123°24'512.9
2018-Apr-19 08:19N 30°05' E 123°27'512.7
2018-Apr-19 07:58N 30°08' E 123°31'3511.7
2018-Apr-19 05:00N 30°38' E 123°52'811.7
2018-Apr-19 04:20N 30°45' E 123°55'412.4
2018-Apr-19 04:00N 30°49' E 123°55'712.1
2018-Apr-19 03:25N 30°56' E 123°53'611.2
2018-Apr-19 02:53N 31°02' E 123°55'512.0
2018-Apr-19 02:28N 31°07' E 123°55'611.5
2018-Apr-19 01:56N 31°13' E 123°54'511.9
2018-Apr-19 01:30N 31°18' E 123°53'712.9
2018-Apr-19 01:00N 31°25' E 123°55'1017.6
2018-Apr-19 00:28N 31°34' E 123°55'810.8
2018-Apr-18 23:42N 31°42' E 123°55'314.2
2018-Apr-18 23:30N 31°45' E 123°55'916.3
2018-Apr-18 22:59N 31°54' E 123°55'612.2
2018-Apr-18 22:29N 31°60' E 123°55'1213.8
2018-Apr-18 21:37N 32°12' E 123°55'613.4
2018-Apr-18 21:11N 32°17' E 123°55'9012.0
2018-Apr-18 13:40N 33°47' E 123°55'26712.9
2018-Apr-17 17:02N 38°07' E 122°40'514.8
2018-Apr-17 16:43N 38°10' E 122°36'314.6
2018-Apr-17 16:30N 38°13' E 122°33'714.5
2018-Apr-17 16:00N 38°18' E 122°27'714.0
2018-Apr-17 15:30N 38°22' E 122°20'714.0
2018-Apr-17 15:01N 38°28' E 122°15'713.8
2018-Apr-17 14:31N 38°33' E 122°08'713.7
2018-Apr-17 14:01N 38°38' E 122°03'713.3
2018-Apr-17 13:28N 38°44' E 121°58'511.8
2018-Apr-17 13:01N 38°49' E 121°57'  

Dump ship's entire track history